Albion, Illinois
Current Conditions -  °F | °C
As of 5:15 AM on Thursday 23 Oct 2014 (Local Time) from KFWC Reporting Station
Clear Clear  
Wind Chill:   Ceiling: Unl
Heat Index:   Visibility: 10mi
Dew Point:   Wind: 0mph
Humidity: 95%   Direction: NA
Pressure: 30.22"   Gusts: NA
Location:  38.38°N, 88.06°W
Report Text: KFWC 231015Z AUTO 00000KT 10SM CLR 05/04 A3022 RMK AO1 T00450038
Loading
Personal Weather Stations






























Interactive Weather Map
Tropical Storm Tracking
New forecast layout! Learn more

10-Day Weather Forecast

Advertisements
Track Severe Weather on mobile